createdAt,value
2024-01-24T00:00:06.115Z,593.00
2024-01-24T00:01:06.181Z,593.00
2024-01-24T00:02:06.140Z,592.00
2024-01-24T00:03:06.183Z,592.00
2024-01-24T00:04:06.199Z,591.00
2024-01-24T00:05:06.185Z,592.00
2024-01-24T00:06:06.161Z,594.00
2024-01-24T00:07:06.176Z,593.00
2024-01-24T00:08:06.169Z,593.00
2024-01-24T00:09:06.186Z,590.00
2024-01-24T00:10:06.183Z,589.00
2024-01-24T00:11:06.182Z,586.00
2024-01-24T00:12:06.240Z,588.00
2024-01-24T00:13:06.232Z,589.00
2024-01-24T00:14:06.258Z,590.00
2024-01-24T00:15:06.209Z,590.00
2024-01-24T00:16:06.240Z,588.00
2024-01-24T00:17:06.241Z,588.00
2024-01-24T00:18:06.341Z,585.00
2024-01-24T00:19:06.382Z,584.00
2024-01-24T00:20:06.310Z,585.00
2024-01-24T00:21:06.389Z,584.00
2024-01-24T00:22:06.414Z,583.00
2024-01-24T00:23:06.445Z,585.00
2024-01-24T00:24:06.488Z,585.00
2024-01-24T00:25:06.530Z,587.00
2024-01-24T00:26:06.577Z,588.00
2024-01-24T00:27:06.633Z,590.00
2024-01-24T00:28:06.653Z,592.00
2024-01-24T00:29:06.702Z,591.00
2024-01-24T00:30:06.758Z,592.00
2024-01-24T00:31:06.798Z,591.00
2024-01-24T00:32:06.846Z,590.00
2024-01-24T00:33:06.884Z,589.00
2024-01-24T00:34:07.022Z,586.00
2024-01-24T00:35:06.910Z,590.00
2024-01-24T00:36:06.916Z,595.00
2024-01-24T00:37:06.942Z,594.00
2024-01-24T00:38:06.949Z,593.00
2024-01-24T00:39:06.949Z,592.00
2024-01-24T00:40:06.977Z,592.00
2024-01-24T00:41:06.960Z,592.00
2024-01-24T00:42:07.009Z,592.00
2024-01-24T00:43:06.984Z,592.00
2024-01-24T00:44:07.002Z,592.00
2024-01-24T00:45:07.009Z,593.00
2024-01-24T00:46:07.033Z,589.00
2024-01-24T00:47:07.052Z,590.00
2024-01-24T00:48:07.065Z,587.00
2024-01-24T00:49:07.076Z,587.00
2024-01-24T00:50:07.065Z,586.00
2024-01-24T00:51:07.044Z,586.00
2024-01-24T00:52:07.046Z,585.00
2024-01-24T00:53:07.043Z,585.00
2024-01-24T00:54:07.081Z,586.00
2024-01-24T00:55:07.071Z,587.00
2024-01-24T00:56:07.066Z,588.00
2024-01-24T00:57:07.076Z,586.00
2024-01-24T00:58:07.104Z,585.00
2024-01-24T00:59:07.122Z,581.00
2024-01-24T01:00:07.181Z,583.00
2024-01-24T01:01:07.241Z,582.00
2024-01-24T01:02:07.144Z,581.00
2024-01-24T01:03:07.334Z,582.00
2024-01-24T01:04:07.255Z,583.00
2024-01-24T01:05:07.223Z,582.00
2024-01-24T01:06:07.248Z,582.00
2024-01-24T01:07:07.282Z,581.00
2024-01-24T01:08:07.339Z,583.00
2024-01-24T01:09:07.369Z,584.00
2024-01-24T01:10:07.419Z,583.00
2024-01-24T01:11:07.471Z,585.00
2024-01-24T01:12:07.514Z,585.00
2024-01-24T01:13:07.553Z,583.00
2024-01-24T01:14:07.597Z,580.00
2024-01-24T01:15:07.625Z,580.00
2024-01-24T01:16:07.682Z,583.00
2024-01-24T01:17:07.729Z,585.00
2024-01-24T01:18:07.815Z,585.00
2024-01-24T01:19:07.980Z,586.00
2024-01-24T01:20:07.877Z,587.00
2024-01-24T01:21:07.938Z,586.00
2024-01-24T01:22:07.994Z,584.00
2024-01-24T01:23:07.985Z,584.00
2024-01-24T01:24:08.044Z,587.00
2024-01-24T01:25:08.094Z,587.00
2024-01-24T01:26:08.118Z,587.00
2024-01-24T01:27:08.163Z,588.00
2024-01-24T01:28:08.232Z,590.00
2024-01-24T01:29:08.274Z,588.00
2024-01-24T01:30:08.318Z,587.00
2024-01-24T01:31:08.335Z,583.00
2024-01-24T01:32:08.399Z,581.00
2024-01-24T01:33:08.460Z,582.00
2024-01-24T01:34:08.484Z,582.00
2024-01-24T01:35:08.442Z,582.00
2024-01-24T01:36:17.420Z,582.00
2024-01-24T01:37:09.467Z,583.00
2024-01-24T01:38:08.449Z,582.00
2024-01-24T01:39:08.447Z,582.00
2024-01-24T01:40:08.439Z,580.00
2024-01-24T01:41:08.476Z,579.00
2024-01-24T01:42:08.464Z,578.00
2024-01-24T01:43:08.450Z,575.00
2024-01-24T01:44:08.460Z,574.00
2024-01-24T01:45:08.470Z,573.00
2024-01-24T01:46:08.502Z,571.00
2024-01-24T01:47:08.501Z,574.00
2024-01-24T01:48:08.548Z,574.00
2024-01-24T01:49:08.608Z,575.00
2024-01-24T01:50:08.534Z,576.00
2024-01-24T01:51:08.532Z,576.00
2024-01-24T01:52:08.557Z,575.00
2024-01-24T01:53:08.574Z,572.00
2024-01-24T01:54:08.605Z,574.00
2024-01-24T01:55:08.647Z,577.00
2024-01-24T01:56:08.679Z,577.00
2024-01-24T01:57:08.709Z,576.00
2024-01-24T01:58:08.766Z,577.00
2024-01-24T01:59:08.790Z,578.00
2024-01-24T02:00:08.840Z,576.00
2024-01-24T02:01:09.040Z,573.00
2024-01-24T02:02:08.921Z,574.00
2024-01-24T02:03:09.093Z,572.00
2024-01-24T02:04:09.044Z,572.00
2024-01-24T02:05:09.043Z,573.00
2024-01-24T02:06:09.186Z,573.00
2024-01-24T02:07:09.151Z,574.00
2024-01-24T02:08:09.114Z,574.00
2024-01-24T02:09:09.137Z,576.00
2024-01-24T02:10:09.138Z,577.00
2024-01-24T02:11:09.215Z,575.00
2024-01-24T02:12:09.164Z,576.00
2024-01-24T02:13:09.199Z,576.00
2024-01-24T02:14:09.188Z,575.00
2024-01-24T02:15:09.237Z,573.00
2024-01-24T02:16:09.211Z,575.00
2024-01-24T02:17:09.226Z,575.00
2024-01-24T02:18:09.338Z,579.00
2024-01-24T02:19:09.283Z,580.00
2024-01-24T02:20:09.233Z,582.00
2024-01-24T02:21:09.236Z,581.00
2024-01-24T02:22:09.249Z,580.00
2024-01-24T02:23:09.240Z,580.00
2024-01-24T02:24:09.248Z,579.00
2024-01-24T02:25:09.254Z,578.00
2024-01-24T02:26:09.258Z,579.00
2024-01-24T02:27:09.278Z,579.00
2024-01-24T02:28:09.359Z,581.00
2024-01-24T02:29:09.271Z,579.00
2024-01-24T02:30:09.281Z,578.00
2024-01-24T02:31:09.293Z,576.00
2024-01-24T02:32:09.309Z,576.00
2024-01-24T02:33:09.394Z,574.00
2024-01-24T02:34:09.380Z,573.00
2024-01-24T02:35:09.296Z,572.00
2024-01-24T02:36:09.320Z,576.00
2024-01-24T02:37:09.331Z,576.00
2024-01-24T02:38:09.329Z,577.00
2024-01-24T02:39:09.349Z,573.00
2024-01-24T02:40:09.382Z,577.00
2024-01-24T02:41:09.385Z,578.00
2024-01-24T02:42:09.394Z,577.00
2024-01-24T02:43:09.411Z,574.00
2024-01-24T02:44:09.420Z,574.00
2024-01-24T02:45:09.430Z,575.00
2024-01-24T02:46:09.442Z,574.00
2024-01-24T02:47:09.453Z,571.00
2024-01-24T02:48:09.556Z,569.00
2024-01-24T02:49:09.560Z,569.00
2024-01-24T02:50:11.409Z,569.00
2024-01-24T02:51:09.503Z,569.00
2024-01-24T02:52:09.520Z,568.00
2024-01-24T02:53:09.532Z,566.00
2024-01-24T02:54:09.535Z,565.00
2024-01-24T02:55:09.542Z,563.00
2024-01-24T02:56:09.567Z,564.00
2024-01-24T02:57:09.596Z,567.00
2024-01-24T02:58:09.572Z,568.00
2024-01-24T02:59:09.582Z,568.00
2024-01-24T03:00:09.587Z,567.00
2024-01-24T03:01:09.680Z,565.00
2024-01-24T03:02:09.616Z,567.00
2024-01-24T03:03:09.718Z,566.00
2024-01-24T03:04:09.749Z,566.00
2024-01-24T03:05:09.644Z,569.00
2024-01-24T03:06:09.664Z,568.00
2024-01-24T03:07:09.752Z,569.00
2024-01-24T03:08:09.679Z,570.00
2024-01-24T03:09:09.684Z,573.00
2024-01-24T03:10:09.734Z,573.00
2024-01-24T03:11:09.684Z,572.00
2024-01-24T03:12:09.694Z,571.00
2024-01-24T03:13:09.755Z,572.00
2024-01-24T03:14:09.707Z,572.00
2024-01-24T03:15:09.719Z,570.00
2024-01-24T03:16:09.742Z,569.00
2024-01-24T03:17:09.728Z,567.00
2024-01-24T03:18:09.815Z,566.00
2024-01-24T03:19:09.806Z,568.00
2024-01-24T03:20:09.744Z,567.00
2024-01-24T03:21:09.757Z,564.00
2024-01-24T03:22:09.814Z,565.00
2024-01-24T03:23:09.847Z,564.00
2024-01-24T03:24:09.900Z,564.00
2024-01-24T03:25:09.958Z,563.00
2024-01-24T03:26:09.988Z,563.00
2024-01-24T03:27:10.045Z,562.00
2024-01-24T03:28:10.086Z,559.00
2024-01-24T03:29:10.127Z,559.00
2024-01-24T03:30:10.188Z,557.00
2024-01-24T03:31:10.225Z,556.00
2024-01-24T03:32:10.268Z,556.00
2024-01-24T03:33:10.315Z,554.00
2024-01-24T03:34:10.342Z,554.00
2024-01-24T03:35:10.304Z,554.00
2024-01-24T03:36:10.263Z,553.00
2024-01-24T03:37:10.284Z,554.00
2024-01-24T03:38:10.286Z,551.00
2024-01-24T03:39:10.295Z,553.00
2024-01-24T03:40:10.301Z,553.00
2024-01-24T03:41:10.338Z,552.00
2024-01-24T03:42:10.337Z,552.00
2024-01-24T03:43:10.339Z,551.00
2024-01-24T03:44:10.387Z,550.00
2024-01-24T03:45:10.364Z,547.00
2024-01-24T03:46:10.369Z,548.00
2024-01-24T03:47:10.378Z,547.00
2024-01-24T03:48:10.426Z,547.00
2024-01-24T03:49:10.411Z,546.00
2024-01-24T03:50:10.449Z,548.00
2024-01-24T03:51:10.514Z,550.00
2024-01-24T03:52:10.522Z,551.00
2024-01-24T03:53:10.526Z,551.00
2024-01-24T03:54:10.534Z,550.00
2024-01-24T03:55:10.584Z,549.00
2024-01-24T03:56:10.591Z,547.00
2024-01-24T03:57:10.634Z,547.00
2024-01-24T03:58:10.585Z,544.00
2024-01-24T03:59:10.600Z,544.00
2024-01-24T04:00:10.597Z,547.00
2024-01-24T04:01:10.770Z,549.00
2024-01-24T04:02:12.032Z,549.00
2024-01-24T04:03:10.640Z,547.00
2024-01-24T04:04:10.760Z,549.00
2024-01-24T04:05:10.656Z,549.00
2024-01-24T04:06:10.698Z,548.00
2024-01-24T04:07:10.761Z,544.00
2024-01-24T04:08:10.673Z,545.00
2024-01-24T04:09:10.679Z,544.00
2024-01-24T04:10:10.682Z,544.00
2024-01-24T04:11:10.694Z,543.00
2024-01-24T04:12:10.718Z,543.00
2024-01-24T04:13:10.711Z,542.00
2024-01-24T04:14:10.747Z,544.00
2024-01-24T04:15:10.743Z,545.00
2024-01-24T04:16:10.815Z,548.00
2024-01-24T04:17:10.762Z,549.00
2024-01-24T04:18:10.846Z,549.00
2024-01-24T04:19:10.824Z,547.00
2024-01-24T04:20:10.776Z,545.00
2024-01-24T04:21:10.800Z,545.00
2024-01-24T04:22:10.817Z,545.00
2024-01-24T04:23:10.811Z,544.00
2024-01-24T04:24:10.805Z,545.00
2024-01-24T04:25:10.821Z,544.00
2024-01-24T04:26:10.829Z,544.00
2024-01-24T04:27:10.836Z,546.00
2024-01-24T04:28:10.837Z,545.00
2024-01-24T04:29:13.611Z,547.00
2024-01-24T04:30:10.854Z,545.00
2024-01-24T04:31:10.867Z,548.00
2024-01-24T04:32:10.890Z,548.00
2024-01-24T04:33:11.005Z,550.00
2024-01-24T04:34:11.029Z,551.00
2024-01-24T04:35:10.892Z,551.00
2024-01-24T04:36:10.898Z,552.00
2024-01-24T04:37:10.941Z,553.00
2024-01-24T04:38:10.908Z,554.00
2024-01-24T04:39:10.930Z,552.00
2024-01-24T04:40:10.947Z,550.00
2024-01-24T04:41:10.941Z,552.00
2024-01-24T04:42:16.188Z,554.00
2024-01-24T04:43:11.978Z,554.00
2024-01-24T04:44:10.972Z,552.00
2024-01-24T04:45:18.306Z,561.00
2024-01-24T04:46:18.256Z,560.00
2024-01-24T04:47:18.317Z,558.00
2024-01-24T04:48:18.422Z,553.00
2024-01-24T04:49:26.585Z,552.00
2024-01-24T04:50:18.606Z,550.00
2024-01-24T04:51:18.373Z,549.00
2024-01-24T04:52:18.321Z,549.00
2024-01-24T04:53:18.412Z,548.00
2024-01-24T04:54:18.475Z,545.00
2024-01-24T04:55:18.347Z,545.00
2024-01-24T04:56:18.363Z,545.00
2024-01-24T04:57:18.375Z,546.00
2024-01-24T04:58:18.392Z,546.00
2024-01-24T04:59:18.459Z,547.00
2024-01-24T05:00:18.428Z,550.00
2024-01-24T05:01:18.516Z,551.00
2024-01-24T05:02:18.408Z,550.00
2024-01-24T05:03:18.442Z,547.00
2024-01-24T05:04:18.466Z,549.00
2024-01-24T05:05:18.526Z,547.00
2024-01-24T05:06:18.546Z,547.00
2024-01-24T05:07:19.006Z,545.00
2024-01-24T05:08:18.533Z,544.00
2024-01-24T05:09:18.611Z,542.00
2024-01-24T05:10:18.649Z,539.00
2024-01-24T05:11:18.693Z,535.00
2024-01-24T05:12:18.801Z,535.00
2024-01-24T05:13:18.795Z,535.00
2024-01-24T05:14:18.838Z,535.00
2024-01-24T05:15:18.972Z,538.00
2024-01-24T05:16:18.946Z,538.00
2024-01-24T05:17:19.003Z,539.00
2024-01-24T05:18:19.145Z,542.00
2024-01-24T05:19:19.194Z,544.00
2024-01-24T05:20:19.124Z,542.00
2024-01-24T05:21:19.196Z,542.00
2024-01-24T05:22:19.149Z,561.00
2024-01-24T05:23:19.146Z,599.00
2024-01-24T05:24:19.220Z,567.00
2024-01-24T05:25:19.155Z,555.00
2024-01-24T05:26:19.177Z,549.00
2024-01-24T05:27:19.217Z,542.00
2024-01-24T05:28:19.197Z,537.00
2024-01-24T05:29:19.227Z,535.00
2024-01-24T05:30:29.954Z,530.00
2024-01-24T05:31:20.289Z,527.00
2024-01-24T05:32:19.269Z,521.00
2024-01-24T05:33:19.379Z,517.00
2024-01-24T05:34:19.360Z,514.00
2024-01-24T05:35:19.313Z,512.00
2024-01-24T05:36:19.343Z,505.00
2024-01-24T05:37:19.354Z,503.00
2024-01-24T05:38:19.344Z,502.00
2024-01-24T05:39:19.394Z,497.00
2024-01-24T05:40:19.370Z,497.00
2024-01-24T05:41:19.403Z,495.00
2024-01-24T05:42:19.448Z,491.00
2024-01-24T05:43:19.439Z,489.00
2024-01-24T05:44:19.462Z,487.00
2024-01-24T05:45:19.505Z,488.00
2024-01-24T05:46:19.503Z,483.00
2024-01-24T05:47:19.535Z,482.00
2024-01-24T05:48:19.682Z,476.00
2024-01-24T05:49:19.819Z,475.00
2024-01-24T05:50:19.564Z,473.00
2024-01-24T05:51:19.660Z,472.00
2024-01-24T05:52:19.627Z,471.00
2024-01-24T05:53:19.625Z,471.00
2024-01-24T05:54:19.670Z,471.00
2024-01-24T05:55:19.655Z,469.00
2024-01-24T05:56:19.662Z,469.00
2024-01-24T05:57:19.728Z,467.00
2024-01-24T05:58:19.702Z,467.00
2024-01-24T05:59:19.731Z,470.00
2024-01-24T06:00:19.821Z,471.00
2024-01-24T06:01:19.831Z,469.00
2024-01-24T06:02:19.782Z,469.00
2024-01-24T06:03:19.834Z,470.00
2024-01-24T06:04:19.917Z,470.00
2024-01-24T06:05:19.941Z,470.00
2024-01-24T06:06:20.023Z,472.00
2024-01-24T06:07:19.979Z,465.00
2024-01-24T06:08:19.924Z,458.00
2024-01-24T06:09:20.101Z,464.00
2024-01-24T06:10:19.975Z,470.00
2024-01-24T06:11:20.017Z,470.00
2024-01-24T06:12:20.052Z,471.00
2024-01-24T06:13:20.065Z,470.00
2024-01-24T06:14:20.071Z,469.00
2024-01-24T06:15:20.121Z,470.00
2024-01-24T06:16:20.132Z,472.00
2024-01-24T06:17:20.148Z,475.00
2024-01-24T06:18:20.305Z,475.00
2024-01-24T06:19:20.208Z,478.00
2024-01-24T06:20:20.201Z,478.00
2024-01-24T06:21:20.236Z,479.00
2024-01-24T06:22:20.248Z,480.00
2024-01-24T06:23:20.278Z,480.00
2024-01-24T06:24:20.864Z,480.00
2024-01-24T06:25:20.335Z,478.00
2024-01-24T06:26:20.352Z,479.00
2024-01-24T06:27:20.434Z,478.00
2024-01-24T06:28:20.382Z,480.00
2024-01-24T06:30:14.824Z,482.00
2024-01-24T06:30:23.569Z,484.00
2024-01-24T06:31:20.524Z,483.00
2024-01-24T06:32:20.475Z,482.00
2024-01-24T06:33:20.545Z,481.00
2024-01-24T06:34:20.549Z,479.00
2024-01-24T06:35:20.518Z,480.00
2024-01-24T06:36:20.591Z,481.00
2024-01-24T06:37:20.556Z,480.00
2024-01-24T06:38:20.571Z,478.00
2024-01-24T06:39:20.622Z,478.00
2024-01-24T06:40:20.614Z,505.00
2024-01-24T06:41:20.643Z,510.00
2024-01-24T06:42:20.654Z,588.00
2024-01-24T06:43:20.656Z,607.00
2024-01-24T06:44:20.664Z,618.00
2024-01-24T06:45:20.926Z,764.00
2024-01-24T06:46:20.701Z,851.00
2024-01-24T06:47:20.722Z,859.00
2024-01-24T06:48:20.805Z,855.00
2024-01-24T06:49:20.825Z,867.00
2024-01-24T06:50:20.789Z,884.00
2024-01-24T06:51:20.845Z,920.00
2024-01-24T06:52:20.843Z,1017.00
2024-01-24T06:53:20.782Z,1035.00
2024-01-24T06:54:20.845Z,1033.00
2024-01-24T06:55:20.793Z,1044.00
2024-01-24T06:56:20.854Z,1066.00
2024-01-24T06:57:20.833Z,1113.00
2024-01-24T06:58:20.825Z,1134.00
2024-01-24T06:59:20.855Z,1149.00
2024-01-24T07:00:20.886Z,1156.00
2024-01-24T07:01:20.940Z,1188.00
2024-01-24T07:02:20.864Z,1218.00
2024-01-24T07:03:23.457Z,1253.00
2024-01-24T07:04:20.939Z,1272.00
2024-01-24T07:05:20.899Z,1288.00
2024-01-24T07:06:21.081Z,1297.00
2024-01-24T07:07:20.923Z,1299.00
2024-01-24T07:08:20.908Z,1297.00
2024-01-24T07:09:20.931Z,1301.00
2024-01-24T07:10:20.902Z,1305.00
2024-01-24T07:11:20.915Z,1309.00
2024-01-24T07:12:20.915Z,1315.00
2024-01-24T07:13:20.912Z,1321.00
2024-01-24T07:14:20.977Z,1317.00
2024-01-24T07:15:20.930Z,1311.00
2024-01-24T07:16:20.921Z,1301.00
2024-01-24T07:17:20.958Z,1288.00
2024-01-24T07:18:21.049Z,1281.00
2024-01-24T07:19:21.114Z,1274.00
2024-01-24T07:20:20.968Z,1260.00
2024-01-24T07:21:20.974Z,1253.00
2024-01-24T07:22:20.985Z,1242.00
2024-01-24T07:23:21.005Z,1231.00
2024-01-24T07:24:21.041Z,1227.00
2024-01-24T07:25:21.193Z,1222.00
2024-01-24T07:26:21.080Z,1217.00
2024-01-24T07:27:21.190Z,1216.00
2024-01-24T07:28:21.179Z,1214.00
2024-01-24T07:29:21.161Z,1216.00
2024-01-24T07:30:21.310Z,1211.00
2024-01-24T07:31:21.222Z,1210.00
2024-01-24T07:32:21.247Z,1211.00
2024-01-24T07:33:24.983Z,1209.00
2024-01-24T07:34:21.368Z,1205.00
2024-01-24T07:35:21.317Z,1206.00
2024-01-24T07:36:21.309Z,1206.00
2024-01-24T07:37:21.298Z,1201.00
2024-01-24T07:38:21.282Z,1200.00
2024-01-24T07:39:21.396Z,1196.00
2024-01-24T07:40:21.297Z,1198.00
2024-01-24T07:41:21.300Z,1195.00
2024-01-24T07:42:21.324Z,1192.00
2024-01-24T07:43:21.322Z,1183.00
2024-01-24T07:44:21.363Z,1169.00
2024-01-24T07:45:21.333Z,1162.00
2024-01-24T07:46:21.340Z,1167.00
2024-01-24T07:47:21.327Z,1162.00
2024-01-24T07:48:21.472Z,1148.00
2024-01-24T07:49:21.486Z,1137.00
2024-01-24T07:50:21.458Z,1125.00
2024-01-24T07:51:21.383Z,1129.00
2024-01-24T07:52:28.986Z,1128.00
2024-01-24T07:53:22.374Z,1124.00
2024-01-24T07:54:21.422Z,1117.00
2024-01-24T07:55:28.311Z,1097.00
2024-01-24T07:57:21.492Z,1062.00
2024-01-24T07:58:21.588Z,1056.00
2024-01-24T07:59:21.436Z,1049.00
2024-01-24T08:00:21.505Z,1049.00
2024-01-24T08:01:22.262Z,1048.00
2024-01-24T08:02:21.484Z,1046.00
2024-01-24T08:03:21.569Z,1046.00
2024-01-24T08:04:21.695Z,1046.00
2024-01-24T08:05:21.572Z,1044.00
2024-01-24T08:06:21.729Z,1044.00
2024-01-24T08:07:21.629Z,1045.00
2024-01-24T08:08:21.622Z,1045.00
2024-01-24T08:09:21.662Z,1045.00
2024-01-24T08:10:21.765Z,1059.00
2024-01-24T08:11:21.652Z,1097.00
2024-01-24T08:12:21.728Z,1100.00
2024-01-24T08:13:21.690Z,1098.00
2024-01-24T08:14:21.706Z,1089.00
2024-01-24T08:15:21.760Z,1083.00
2024-01-24T08:16:21.743Z,1081.00
2024-01-24T08:17:21.783Z,1080.00
2024-01-24T08:18:21.808Z,1087.00
2024-01-24T08:19:21.765Z,1092.00
2024-01-24T08:20:21.831Z,1101.00
2024-01-24T08:21:21.841Z,1106.00
2024-01-24T08:22:21.803Z,1115.00
2024-01-24T08:23:24.644Z,1133.00
2024-01-24T08:24:21.860Z,1135.00
2024-01-24T08:25:21.812Z,1142.00
2024-01-24T08:26:21.801Z,1142.00
2024-01-24T08:27:21.833Z,1138.00
2024-01-24T08:28:21.932Z,1130.00
2024-01-24T08:29:26.149Z,1131.00
2024-01-24T08:30:22.813Z,1134.00
2024-01-24T08:31:21.773Z,1138.00
2024-01-24T08:32:21.821Z,1136.00
2024-01-24T08:33:21.867Z,1134.00
2024-01-24T08:34:21.846Z,1132.00
2024-01-24T08:35:21.775Z,1129.00
2024-01-24T08:36:21.783Z,1130.00
2024-01-24T08:37:21.765Z,1124.00
2024-01-24T08:38:21.745Z,1110.00
2024-01-24T08:39:21.768Z,1101.00
2024-01-24T08:40:21.736Z,1118.00
2024-01-24T08:41:21.758Z,1137.00
2024-01-24T08:42:21.770Z,1211.00
2024-01-24T08:43:21.735Z,1212.00
2024-01-24T08:44:21.732Z,1210.00
2024-01-24T08:45:21.736Z,1206.00
2024-01-24T08:46:21.743Z,1203.00
2024-01-24T08:47:21.714Z,1199.00
2024-01-24T08:48:21.874Z,1199.00
2024-01-24T08:49:21.795Z,1196.00
2024-01-24T08:50:21.740Z,1191.00
2024-01-24T08:51:21.769Z,1185.00
2024-01-24T08:52:21.740Z,1180.00
2024-01-24T08:53:21.718Z,1175.00
2024-01-24T08:54:21.763Z,1178.00
2024-01-24T08:55:21.716Z,1174.00
2024-01-24T08:56:21.726Z,1170.00
2024-01-24T08:57:21.794Z,1163.00
2024-01-24T08:58:21.721Z,1161.00
2024-01-24T08:59:21.726Z,1158.00
2024-01-24T09:00:21.753Z,1154.00
2024-01-24T09:01:21.851Z,1156.00
2024-01-24T09:02:21.711Z,1157.00
2024-01-24T09:03:21.793Z,1157.00
2024-01-24T09:04:21.773Z,994.00
2024-01-24T09:05:21.738Z,924.00
2024-01-24T09:06:21.749Z,926.00
2024-01-24T09:07:21.712Z,990.00
2024-01-24T09:08:21.717Z,970.00
2024-01-24T09:09:21.768Z,958.00
2024-01-24T09:10:21.788Z,947.00
2024-01-24T09:11:21.728Z,930.00
2024-01-24T09:12:21.790Z,925.00
2024-01-24T09:13:21.740Z,919.00
2024-01-24T09:14:21.750Z,920.00
2024-01-24T09:15:21.795Z,920.00
2024-01-24T09:16:21.751Z,926.00
2024-01-24T09:17:21.765Z,933.00
2024-01-24T09:18:22.007Z,933.00
2024-01-24T09:19:21.823Z,930.00
2024-01-24T09:20:21.841Z,928.00
2024-01-24T09:21:21.808Z,924.00
2024-01-24T09:22:21.757Z,928.00
2024-01-24T09:23:21.769Z,941.00
2024-01-24T09:24:21.788Z,947.00
2024-01-24T09:25:21.801Z,938.00
2024-01-24T09:26:21.776Z,936.00
2024-01-24T09:27:21.797Z,938.00
2024-01-24T09:28:21.785Z,940.00
2024-01-24T09:29:21.768Z,947.00
2024-01-24T09:30:21.816Z,950.00
2024-01-24T09:31:21.795Z,961.00
2024-01-24T09:32:21.794Z,961.00
2024-01-24T09:33:21.877Z,965.00
2024-01-24T09:34:21.862Z,880.00
2024-01-24T09:35:21.901Z,855.00
2024-01-24T09:36:22.432Z,806.00
2024-01-24T09:37:21.785Z,729.00
2024-01-24T09:38:21.768Z,712.00
2024-01-24T09:39:21.832Z,709.00
2024-01-24T09:40:21.913Z,704.00
2024-01-24T09:41:21.826Z,700.00
2024-01-24T09:42:21.886Z,699.00
2024-01-24T09:43:21.845Z,696.00
2024-01-24T09:44:21.831Z,693.00
2024-01-24T09:45:21.885Z,690.00
2024-01-24T09:46:21.915Z,696.00
2024-01-24T09:47:21.877Z,702.00
2024-01-24T09:48:21.976Z,711.00
2024-01-24T09:49:21.961Z,703.00
2024-01-24T09:50:21.948Z,698.00
2024-01-24T09:51:21.940Z,690.00
2024-01-24T09:52:21.953Z,693.00
2024-01-24T09:53:22.035Z,727.00
2024-01-24T09:54:22.117Z,756.00
2024-01-24T09:55:22.072Z,775.00
2024-01-24T09:56:22.109Z,791.00
2024-01-24T09:57:22.109Z,806.00
2024-01-24T09:58:22.111Z,911.00
2024-01-24T09:59:22.069Z,917.00
2024-01-24T10:00:22.133Z,926.00
2024-01-24T10:01:22.157Z,942.00
2024-01-24T10:02:22.081Z,956.00
2024-01-24T10:03:22.162Z,973.00
2024-01-24T10:04:22.210Z,1013.00
2024-01-24T10:05:22.084Z,1030.00
2024-01-24T10:06:22.149Z,1017.00
2024-01-24T10:07:22.132Z,1038.00
2024-01-24T10:08:22.089Z,1037.00
2024-01-24T10:09:22.126Z,1044.00
2024-01-24T10:10:22.140Z,1042.00
2024-01-24T10:11:22.085Z,1049.00
2024-01-24T10:12:22.180Z,1063.00
2024-01-24T10:13:22.927Z,1064.00
2024-01-24T10:14:22.115Z,1062.00
2024-01-24T10:15:22.181Z,1069.00
2024-01-24T10:16:22.143Z,1068.00
2024-01-24T10:17:22.177Z,1068.00
2024-01-24T10:18:22.242Z,1067.00
2024-01-24T10:19:22.244Z,1068.00
2024-01-24T10:20:22.181Z,1077.00
2024-01-24T10:21:22.288Z,1079.00
2024-01-24T10:22:22.365Z,1078.00
2024-01-24T10:23:22.192Z,1085.00
2024-01-24T10:24:22.228Z,1098.00
2024-01-24T10:25:22.204Z,1102.00
2024-01-24T10:26:22.219Z,1104.00
2024-01-24T10:27:22.261Z,1103.00
2024-01-24T10:28:22.243Z,1108.00
2024-01-24T10:29:22.203Z,1102.00
2024-01-24T10:30:22.251Z,1096.00
2024-01-24T10:31:22.341Z,1089.00
2024-01-24T10:32:22.198Z,1085.00
2024-01-24T10:33:22.312Z,1077.00
2024-01-24T10:34:22.324Z,1074.00
2024-01-24T10:35:22.234Z,1071.00
2024-01-24T10:36:27.555Z,1075.00
2024-01-24T10:37:23.620Z,1076.00
2024-01-24T10:38:22.182Z,1077.00
2024-01-24T10:39:22.179Z,1076.00
2024-01-24T10:40:22.159Z,1074.00
2024-01-24T10:41:22.144Z,1069.00
2024-01-24T10:42:22.205Z,1063.00
2024-01-24T10:43:22.140Z,982.00
2024-01-24T10:44:22.175Z,954.00
2024-01-24T10:45:22.261Z,965.00
2024-01-24T10:46:22.170Z,992.00
2024-01-24T10:47:22.197Z,1034.00
2024-01-24T10:48:22.287Z,995.00
2024-01-24T10:49:22.170Z,994.00
2024-01-24T10:50:22.121Z,865.00
2024-01-24T10:51:22.136Z,845.00
2024-01-24T10:52:22.159Z,944.00
2024-01-24T10:53:22.135Z,927.00
2024-01-24T10:54:22.142Z,930.00
2024-01-24T10:55:22.099Z,931.00
2024-01-24T10:56:22.101Z,922.00
2024-01-24T10:57:22.116Z,914.00
2024-01-24T10:58:22.123Z,904.00
2024-01-24T10:59:22.120Z,899.00
2024-01-24T11:00:22.156Z,889.00
2024-01-24T11:01:22.191Z,896.00
2024-01-24T11:02:22.162Z,890.00
2024-01-24T11:03:22.225Z,879.00
2024-01-24T11:04:22.133Z,868.00
2024-01-24T11:05:22.281Z,865.00
2024-01-24T11:06:22.159Z,877.00
2024-01-24T11:07:22.153Z,758.00
2024-01-24T11:08:23.690Z,782.00
2024-01-24T11:09:22.193Z,788.00
2024-01-24T11:10:22.227Z,781.00
2024-01-24T11:11:22.179Z,789.00
2024-01-24T11:12:22.216Z,803.00
2024-01-24T11:13:22.210Z,793.00
2024-01-24T11:14:22.178Z,792.00
2024-01-24T11:15:22.274Z,796.00
2024-01-24T11:16:22.185Z,794.00
2024-01-24T11:17:22.242Z,816.00
2024-01-24T11:18:22.272Z,784.00
2024-01-24T11:19:22.472Z,803.00
2024-01-24T11:20:22.236Z,735.00
2024-01-24T11:21:22.247Z,780.00
2024-01-24T11:22:27.125Z,815.00
2024-01-24T11:23:23.220Z,821.00
2024-01-24T11:24:22.219Z,827.00
2024-01-24T11:25:22.238Z,838.00
2024-01-24T11:26:22.334Z,864.00
2024-01-24T11:27:23.086Z,883.00
2024-01-24T11:28:22.230Z,883.00
2024-01-24T11:29:22.229Z,882.00
2024-01-24T11:30:22.322Z,876.00
2024-01-24T11:31:22.212Z,868.00
2024-01-24T11:32:22.221Z,872.00
2024-01-24T11:33:22.269Z,878.00
2024-01-24T11:34:22.313Z,878.00
2024-01-24T11:35:22.290Z,880.00
2024-01-24T11:36:22.222Z,884.00
2024-01-24T11:37:22.218Z,893.00
2024-01-24T11:38:26.670Z,890.00
2024-01-24T11:39:23.238Z,885.00
2024-01-24T11:40:22.212Z,882.00
2024-01-24T11:41:22.171Z,874.00
2024-01-24T11:42:22.171Z,862.00
2024-01-24T11:43:22.162Z,849.00
2024-01-24T11:44:22.175Z,836.00
2024-01-24T11:45:22.297Z,812.00
2024-01-24T11:46:22.254Z,800.00
2024-01-24T11:47:22.167Z,788.00
2024-01-24T11:48:22.340Z,775.00
2024-01-24T11:49:22.179Z,761.00
2024-01-24T11:50:22.650Z,753.00
2024-01-24T11:51:22.258Z,748.00
2024-01-24T11:52:22.116Z,739.00
2024-01-24T11:53:22.143Z,732.00
2024-01-24T11:54:22.154Z,724.00
2024-01-24T11:55:22.173Z,713.00
2024-01-24T11:56:23.640Z,708.00
2024-01-24T11:57:22.098Z,696.00
2024-01-24T11:58:22.066Z,690.00
2024-01-24T11:59:22.055Z,677.00
2024-01-24T12:00:22.147Z,671.00
2024-01-24T12:01:22.150Z,667.00
2024-01-24T12:02:22.072Z,666.00
2024-01-24T12:03:22.101Z,658.00
2024-01-24T12:04:22.221Z,655.00
2024-01-24T12:05:22.074Z,651.00
2024-01-24T12:06:22.179Z,642.00
2024-01-24T12:07:22.166Z,640.00
2024-01-24T12:08:22.050Z,634.00
2024-01-24T12:09:22.078Z,634.00
2024-01-24T12:10:22.047Z,630.00
2024-01-24T12:11:22.041Z,625.00
2024-01-24T12:12:22.050Z,621.00
2024-01-24T12:13:22.037Z,619.00
2024-01-24T12:14:22.018Z,616.00
2024-01-24T12:15:22.095Z,611.00
2024-01-24T12:16:22.042Z,612.00
2024-01-24T12:17:22.000Z,609.00
2024-01-24T12:18:22.388Z,607.00
2024-01-24T12:19:22.114Z,605.00
2024-01-24T12:20:22.137Z,605.00
2024-01-24T12:21:22.050Z,603.00
2024-01-24T12:22:22.022Z,600.00
2024-01-24T12:23:21.978Z,598.00
2024-01-24T12:24:22.004Z,597.00